»·PEaware :: DCM205 KSFO-KPDX

DCM205 :: KSFO-KPDX

FLIGHT INFORMATION

Flight Status: Arrived
Operator:
DotCom
More flights by this operator :: More flights under this callsign
Pilot: Chris S. (2433)
Aircraft: AIRBUS A320
(A320)
More flights by this aircraft type
Origin: KSFO San Francisco Intl
United States
Destination: KPDX Portland Intl
United States
More flights between these airports :: More routes between these airports
Route: TRUKN2 GRTFL SPNSR TMBRS2
File this flight plan on PilotEdge
Remarks:
Altitude:
(Current/Filed)
36,000ft
Speed:
(Current/Filed)
450kts
Departed: 28-Dec-20 12:43 PM
Arrived: 28-Dec-20 02:05 PM
Distance/Time
Traveled:
478nm/1:22
Distance/Time
To Go:
Arrived

Flight Plot

Page will automatically refresh every two minutes.

Flight plan parsing failed; only flown route is shown


Map Options




Map Legend


Flown Route
Filed Route
Departure Airport
Arrival Airport
Navaid (VOR, NDB)
Fix

Horizontal Profiles

Position Reports

Time Latitude Longitude Heading Altitude Ground
Speed
28-Dec-20 12:27 37.610221 -122.388059 219 27ft 0kts
28-Dec-20 12:28 37.610221 -122.388059 219 27ft 0kts
28-Dec-20 12:29 37.610221 -122.388059 219 27ft 0kts
28-Dec-20 12:30 37.610221 -122.388059 219 27ft 0kts
28-Dec-20 12:31 37.610221 -122.388059 219 27ft 0kts
28-Dec-20 12:32 37.610221 -122.388059 219 27ft 0kts
28-Dec-20 12:33 37.610244 -122.388036 219 27ft 1kts
28-Dec-20 12:34 37.610491 -122.387775 219 27ft 0kts
28-Dec-20 12:35 37.610491 -122.387775 219 27ft 0kts
28-Dec-20 12:36 37.610491 -122.387775 219 27ft 0kts
28-Dec-20 12:37 37.610415 -122.387827 200 27ft 2kts
28-Dec-20 12:38 37.610238 -122.386703 70 27ft 6kts
28-Dec-20 12:38 37.610805 -122.384617 84 27ft 7kts
28-Dec-20 12:40 37.609559 -122.383391 192 27ft 5kts
28-Dec-20 12:40 37.609309 -122.383374 174 27ft 0kts
28-Dec-20 12:42 37.608607 -122.382779 95 27ft 7kts
28-Dec-20 12:42 37.616462 -122.377244 27 27ft 128kts
28-Dec-20 12:43 37.650468 -122.341127 56 2043ft 185kts
28-Dec-20 12:44 37.684825 -122.277254 56 3870ft 248kts
28-Dec-20 12:45 37.730991 -122.214326 14 7169ft 258kts
28-Dec-20 12:46 37.805184 -122.217214 2 10077ft 274kts
28-Dec-20 12:47 37.890432 -122.218892 1 11331ft 341kts
28-Dec-20 12:48 37.990971 -122.221716 1 13150ft 372kts
28-Dec-20 12:49 38.096400 -122.224531 0 15226ft 385kts
28-Dec-20 12:50 38.205258 -122.227427 0 17103ft 397kts
28-Dec-20 12:51 38.317018 -122.230399 0 18836ft 406kts
28-Dec-20 12:52 38.430799 -122.241599 354 20514ft 413kts
28-Dec-20 12:53 38.545985 -122.257310 354 22002ft 419kts
28-Dec-20 12:54 38.662903 -122.273009 354 23328ft 425kts
28-Dec-20 12:55 38.781794 -122.289016 353 24491ft 432kts
28-Dec-20 12:56 38.902630 -122.305372 353 25569ft 438kts
28-Dec-20 12:57 39.024977 -122.321970 353 26490ft 445kts
28-Dec-20 12:58 39.148926 -122.338860 352 27329ft 451kts
28-Dec-20 12:59 39.273442 -122.355884 352 28375ft 449kts
28-Dec-20 13:00 39.397684 -122.372932 352 29410ft 448kts
28-Dec-20 13:01 39.521351 -122.389960 352 30409ft 447kts
28-Dec-20 13:02 39.644988 -122.407046 352 31366ft 445kts
28-Dec-20 13:03 39.768024 -122.424107 352 32281ft 444kts
28-Dec-20 13:04 39.890409 -122.441127 352 33162ft 441kts
28-Dec-20 13:05 40.012182 -122.458169 352 33950ft 439kts
28-Dec-20 13:06 40.133906 -122.475208 352 34598ft 439kts
28-Dec-20 13:07 40.255048 -122.492251 352 35196ft 438kts
28-Dec-20 13:08 40.376012 -122.509341 352 35704ft 437kts
28-Dec-20 13:09 40.496935 -122.526456 352 35942ft 436kts
28-Dec-20 13:10 40.617615 -122.543646 352 35951ft 435kts
28-Dec-20 13:11 40.738113 -122.560836 352 35941ft 435kts
28-Dec-20 13:12 40.858478 -122.578092 352 35932ft 435kts
28-Dec-20 13:13 40.978844 -122.595390 352 35911ft 435kts
28-Dec-20 13:14 41.099396 -122.612782 352 35955ft 435kts
28-Dec-20 13:15 41.219726 -122.630214 352 35995ft 435kts
28-Dec-20 13:16 41.340427 -122.647764 352 36008ft 436kts
28-Dec-20 13:17 41.461305 -122.665389 352 35990ft 435kts
28-Dec-20 13:18 41.581986 -122.683068 352 35950ft 436kts
28-Dec-20 13:19 41.702415 -122.700766 352 35975ft 436kts
28-Dec-20 13:20 41.823265 -122.718616 352 36001ft 436kts
28-Dec-20 13:21 41.944026 -122.736492 352 36031ft 436kts
28-Dec-20 13:22 42.064746 -122.754452 353 36061ft 436kts
28-Dec-20 13:23 42.185178 -122.772406 353 36061ft 435kts
28-Dec-20 13:24 42.305412 -122.790465 353 36016ft 435kts
28-Dec-20 13:25 42.426089 -122.808596 353 35992ft 435kts
28-Dec-20 13:26 42.545992 -122.826694 353 36017ft 433kts
28-Dec-20 13:27 42.666134 -122.844912 353 35992ft 431kts
28-Dec-20 13:28 42.784412 -122.862929 353 36005ft 424kts
28-Dec-20 13:29 42.903197 -122.880985 354 36037ft 434kts
28-Dec-20 13:30 43.023326 -122.868990 4 36049ft 433kts
28-Dec-20 13:31 43.143321 -122.854604 4 36073ft 433kts
28-Dec-20 13:32 43.263372 -122.839666 4 36082ft 433kts
28-Dec-20 13:33 43.383253 -122.824931 4 36052ft 433kts
28-Dec-20 13:34 43.503690 -122.813294 3 36048ft 432kts
28-Dec-20 13:35 43.623768 -122.802181 3 36053ft 430kts
28-Dec-20 13:36 43.742333 -122.791171 3 36055ft 424kts
28-Dec-20 13:37 43.860209 -122.780204 3 34862ft 424kts
28-Dec-20 13:38 43.981640 -122.768857 4 30757ft 445kts
28-Dec-20 13:39 44.105919 -122.757141 5 27277ft 445kts
28-Dec-20 13:40 44.229260 -122.745263 5 24104ft 441kts
28-Dec-20 13:41 44.350499 -122.733277 5 21283ft 432kts
28-Dec-20 13:42 44.464418 -122.722081 5 20048ft 381kts
28-Dec-20 13:43 44.564317 -122.712154 5 18758ft 352kts
28-Dec-20 13:44 44.661355 -122.702428 5 16881ft 345kts
28-Dec-20 13:45 44.756114 -122.692898 5 15174ft 337kts
28-Dec-20 13:46 44.848376 -122.683634 5 13561ft 326kts
28-Dec-20 13:47 44.936451 -122.685733 338 12786ft 352kts
28-Dec-20 13:48 44.985988 -122.794998 288 11795ft 325kts
28-Dec-20 13:49 45.050341 -122.849815 16 11068ft 278kts
28-Dec-20 13:50 45.115776 -122.793515 35 9564ft 274kts
28-Dec-20 13:51 45.178649 -122.732622 35 8060ft 270kts
28-Dec-20 13:52 45.238342 -122.674727 35 6593ft 261kts
28-Dec-20 13:53 45.296155 -122.618900 35 5130ft 253kts
28-Dec-20 13:54 45.351577 -122.565898 35 4974ft 220kts
28-Dec-20 13:55 45.380893 -122.493480 75 4989ft 219kts
28-Dec-20 13:56 45.396994 -122.410557 75 4023ft 216kts
28-Dec-20 13:57 45.412921 -122.328676 74 2962ft 210kts
28-Dec-20 13:58 45.458758 -122.293071 338 2972ft 195kts
28-Dec-20 13:59 45.489951 -122.352015 299 3001ft 190kts
28-Dec-20 14:00 45.513798 -122.412909 300 2699ft 160kts
28-Dec-20 14:01 45.535565 -122.468671 301 1855ft 161kts
28-Dec-20 14:02 45.557903 -122.525906 300 991ft 161kts
28-Dec-20 14:03 45.578702 -122.579134 296 177ft 147kts
28-Dec-20 14:04 45.588739 -122.602412 340 44ft 0kts
28-Dec-20 14:05 45.589459 -122.601736 87 44ft 9kts
28-Dec-20 14:06 45.588579 -122.598146 30 44ft 10kts
28-Dec-20 14:07 45.589012 -122.597957 14 44ft 0kts

Navigation Log

Ident Type
Flight plan parsing failed, navigation log unavailable